Time;durP1;ratioP1;P1;durP2;ratioP2;P2;SDS_P1;SDS_P2;PMS_P1;PMS_P2;Temp;Humidity;BMP_temperature;BMP_pressure;BME280_temperature;BME280_humidity;BME280_pressure;Samples;Min_cycle;Max_cycle;Signal;HPM_P1;HPM_P2
2023/12/18 00:03:04;;;;;;;;;23.50;20.75;;;;;0.65;74.83;102136.66;146616;578;46016;-65
2023/12/18 00:06:11;;;;;;;;;32.50;27.50;;;;;5.81;75.10;103044.53;146620;582;46010;-65
2023/12/18 00:09:21;;;;;;;;;34.25;27.75;;;;;5.80;74.46;103046.19;146619;579;46012;-65
2023/12/18 00:12:20;;;;;;;;;29.75;25.50;;;;;5.78;74.38;103045.09;146620;575;46020;-65
2023/12/18 00:15:25;;;;;;;;;28.50;27.50;;;;;5.78;74.81;103039.94;146614;593;46016;-66
2023/12/18 00:18:48;;;;;;;;;30.00;25.75;;;;;5.81;74.79;103050.59;146618;581;46012;-67
2023/12/18 00:21:51;;;;;;;;;25.00;21.25;;;;;5.81;74.18;103048.00;146619;662;46016;-66
2023/12/18 00:24:59;;;;;;;;;25.00;24.25;;;;;5.81;74.52;103045.44;146623;625;46011;-66
2023/12/18 00:28:08;;;;;;;;;;;;;;;;;;;;;
2023/12/18 00:31:24;;;;;;;;;23.25;22.00;;;;;5.71;74.97;103051.25;146621;670;46010;-64
2023/12/18 00:34:30;;;;;;;;;30.25;29.50;;;;;0.95;74.38;102201.22;146617;571;46012;-66
2023/12/18 00:37:33;;;;;;;;;34.75;26.50;;;;;5.68;74.55;103052.59;146618;565;46020;-66
2023/12/18 00:40:38;;;;;;;;;39.50;33.25;;;;;5.68;74.76;103055.16;146615;626;46016;-66
2023/12/18 00:43:47;;;;;;;;;;;;;;;;;;;;;
2023/12/18 00:46:49;;;;;;;;;34.25;29.50;;;;;5.66;74.76;103043.78;146619;724;46016;-66
2023/12/18 00:49:56;;;;;;;;;33.25;31.00;;;;;5.66;74.85;103043.78;146616;717;47020;-66
2023/12/18 00:52:53;;;;;;;;;37.00;32.25;;;;;5.65;74.81;103041.97;146615;589;46016;-65
2023/12/18 00:55:50;;;;;;;;;33.50;30.25;;;;;5.60;74.43;103043.13;146609;626;46010;-64
2023/12/18 00:58:44;;;;;;;;;31.50;28.50;;;;;5.44;74.14;103036.31;146619;608;46012;-64
2023/12/18 01:01:47;;;;;;;;;29.75;24.75;;;;;5.29;73.93;103038.12;146622;653;46010;-67
2023/12/18 01:05:08;;;;;;;;;34.75;31.50;;;;;1.12;73.44;102322.47;146617;676;46016;-64
2023/12/18 01:08:26;;;;;;;;;35.75;29.25;;;;;5.03;73.38;103024.97;146620;649;46020;-64
2023/12/18 01:11:35;;;;;;;;;29.75;27.00;;;;;4.96;74.16;103025.06;146616;602;46014;-65
2023/12/18 01:14:48;;;;;;;;;39.00;33.25;;;;;4.92;74.79;103030.59;146620;624;46020;-69
2023/12/18 01:17:58;;;;;;;;;44.00;34.00;;;;;4.89;75.74;103027.72;146614;571;46016;-67
2023/12/18 01:20:59;;;;;;;;;34.00;32.00;;;;;4.79;77.08;103011.97;146617;611;46028;-67
2023/12/18 01:23:59;;;;;;;;;35.25;27.00;;;;;4.88;77.65;103018.16;146618;572;46014;-66
2023/12/18 01:27:00;;;;;;;;;30.50;26.50;;;;;4.92;79.63;103015.16;146619;579;46010;-66
2023/12/18 01:30:01;;;;;;;;;31.75;28.00;;;;;4.96;78.98;103007.06;146615;593;46016;-68
2023/12/18 01:33:01;;;;;;;;;37.25;29.00;;;;;5.01;80.09;103010.13;146620;576;45021;-67
2023/12/18 01:36:13;;;;;;;;;33.50;29.75;;;;;5.03;80.07;103003.50;146617;600;46014;-67
2023/12/18 01:39:30;;;;;;;;;34.25;29.25;;;;;5.05;80.49;102989.16;146620;667;46011;-67
2023/12/18 01:42:31;;;;;;;;;32.00;30.25;;;;;5.06;80.53;102993.56;146613;573;46016;-68
2023/12/18 01:45:35;;;;;;;;;35.75;32.00;;;;;5.06;79.57;102991.88;146618;649;46020;-67
2023/12/18 01:48:44;;;;;;;;;36.00;30.50;;;;;5.10;79.40;102986.31;146620;676;46012;-66
2023/12/18 01:51:59;;;;;;;;;35.50;26.50;;;;;0.01;78.37;102073.22;146621;589;46010;-65
2023/12/18 01:54:56;;;;;;;;;28.00;26.00;;;;;5.14;78.84;102982.47;146618;645;46014;-67
2023/12/18 01:58:04;;;;;;;;;35.50;31.75;;;;;5.17;78.40;102977.66;146613;597;46020;-66
2023/12/18 02:01:07;;;;;;;;;;;;;;;;;;;;;
2023/12/18 02:04:12;;;;;;;;;38.50;31.75;;;;;5.19;77.93;102981.28;146617;581;46010;-66
2023/12/18 02:07:21;;;;;;;;;38.50;29.00;;;;;5.23;77.51;102982.53;146617;588;46012;-66
2023/12/18 02:10:32;;;;;;;;;22.25;21.75;;;;;2.73;76.94;102535.00;146614;606;46021;-66
2023/12/18 02:13:33;;;;;;;;;29.75;29.00;;;;;5.21;77.87;102971.19;146617;575;46012;-66
2023/12/18 02:16:33;;;;;;;;;33.75;28.00;;;;;5.23;77.53;102977.38;146620;579;46021;-66
2023/12/18 02:19:29;;;;;;;;;30.75;28.25;;;;;5.21;77.32;102972.09;146615;596;46016;-66
2023/12/18 02:22:33;;;;;;;;;;;;;;;;;;;;;
2023/12/18 02:25:32;;;;;;;;;31.75;28.75;;;;;5.23;77.02;102961.94;146615;632;46019;-66
2023/12/18 02:28:31;;;;;;;;;33.50;27.50;;;;;5.22;77.03;102960.12;146619;563;46020;-65
2023/12/18 02:31:26;;;;;;;;;31.50;25.75;;;;;5.21;76.72;102955.75;146618;636;46012;-66
2023/12/18 02:34:52;;;;;;;;;32.25;26.25;;;;;5.17;76.20;102957.06;146617;582;46020;-66
2023/12/18 02:37:50;;;;;;;;;28.00;26.00;;;;;5.06;76.14;102948.19;146615;620;46012;-65
2023/12/18 02:40:49;;;;;;;;;25.25;23.00;;;;;4.91;75.58;102949.06;146618;622;46020;-64
2023/12/18 02:44:00;;;;;;;;;26.50;25.75;;;;;-0.36;75.10;102046.03;146617;586;46918;-65
2023/12/18 02:47:08;;;;;;;;;29.50;27.00;;;;;4.50;75.35;102934.25;146620;671;47012;-67
2023/12/18 02:50:06;;;;;;;;;29.50;25.75;;;;;4.31;75.14;102929.62;146617;580;46917;-69
2023/12/18 02:53:01;;;;;;;;;25.50;25.50;;;;;4.14;75.79;102925.19;146618;585;46021;-67
2023/12/18 02:56:02;;;;;;;;;25.25;21.75;;;;;3.99;76.71;102936.31;146613;612;46918;-64
2023/12/18 02:59:03;;;;;;;;;28.00;24.00;;;;;3.84;77.77;102934.56;146619;612;46020;-64
2023/12/18 03:02:00;;;;;;;;;29.75;26.50;;;;;3.67;78.68;102928.41;146617;586;46012;-64
2023/12/18 03:04:59;;;;;;;;;27.75;22.00;;;;;3.61;78.75;102930.28;146618;641;46020;-64
2023/12/18 03:08:46;;;;;;;;;29.00;24.50;;;;;-0.80;78.43;102160.56;146616;618;46018;-64
2023/12/18 03:11:49;;;;;;;;;23.00;22.25;;;;;3.77;79.52;102926.91;146618;575;46010;-63
2023/12/18 03:14:56;;;;;;;;;23.50;20.25;;;;;3.84;78.85;102930.34;146615;580;46016;-64
2023/12/18 03:17:56;;;;;;;;;21.50;16.50;;;;;3.89;78.67;102936.00;146617;593;46020;-64
2023/12/18 03:20:59;;;;;;;;;17.25;14.50;;;;;3.82;78.34;102924.13;146617;571;46016;-65
2023/12/18 03:23:55;;;;;;;;;14.25;12.75;;;;;3.79;77.85;102925.44;146621;564;46010;-65
2023/12/18 03:26:58;;;;;;;;;20.00;14.75;;;;;3.75;78.06;102924.16;146618;586;46016;-64
2023/12/18 03:29:54;;;;;;;;;17.25;16.25;;;;;3.74;77.92;102921.41;146617;590;46020;-65
2023/12/18 03:32:50;;;;;;;;;19.25;16.75;;;;;3.77;78.40;102930.41;146616;591;46016;-65
2023/12/18 03:35:56;;;;;;;;;17.00;14.00;;;;;-0.79;77.91;102103.81;146620;571;46020;-68
2023/12/18 03:39:00;;;;;;;;;15.50;13.25;;;;;3.91;78.77;102929.38;146619;614;46012;-66
2023/12/18 03:42:01;;;;;;;;;15.50;12.50;;;;;3.97;78.90;102924.94;146618;624;46020;-62
2023/12/18 03:45:05;;;;;;;;;18.50;13.75;;;;;4.04;79.08;102923.97;146615;617;46017;-63
2023/12/18 03:48:03;;;;;;;;;19.00;17.25;;;;;4.14;78.94;102922.63;146623;652;45020;-64
2023/12/18 03:50:58;;;;;;;;;21.75;18.75;;;;;4.25;78.96;102928.03;146618;583;46012;-63
2023/12/18 03:54:04;;;;;;;;;23.00;20.00;;;;;4.30;79.22;102921.75;146622;620;46010;-62
2023/12/18 03:57:03;;;;;;;;;26.00;21.50;;;;;4.33;79.03;102930.72;146617;587;46016;-63
2023/12/18 04:00:03;;;;;;;;;28.75;23.50;;;;;4.38;79.29;102933.78;146618;571;46020;-63
2023/12/18 04:03:14;;;;;;;;;22.25;20.25;;;;;4.42;78.80;102935.03;146614;573;46016;-63
2023/12/18 04:06:16;;;;;;;;;20.00;19.00;;;;;4.46;78.99;102938.13;146618;607;46020;-64
2023/12/18 04:09:31;;;;;;;;;20.00;17.50;;;;;4.49;77.98;102935.91;146618;602;46016;-63
2023/12/18 04:12:30;;;;;;;;;21.50;19.25;;;;;4.49;77.66;102929.88;146617;585;47010;-63
2023/12/18 04:15:42;;;;;;;;;35.00;26.25;;;;;4.50;77.91;102935.16;146619;593;46012;-64
2023/12/18 04:18:45;;;;;;;;;23.75;21.00;;;;;4.51;77.35;102936.97;146620;593;46012;-64
2023/12/18 04:21:51;;;;;;;;;27.50;21.25;;;;;4.54;78.16;102939.88;146617;642;46015;-62
2023/12/18 04:24:49;;;;;;;;;23.00;21.00;;;;;4.52;77.42;102925.06;146618;591;46021;-63
2023/12/18 04:28:07;;;;;;;;;24.25;20.25;;;;;4.51;77.38;102930.94;146617;720;47012;-66
2023/12/18 04:31:04;;;;;;;;;25.25;21.25;;;;;4.49;77.73;102917.03;146620;611;46010;-63
2023/12/18 04:34:04;;;;;;;;;31.75;23.75;;;;;4.51;77.97;102936.06;146617;570;46012;-63
2023/12/18 04:37:10;;;;;;;;;23.25;21.25;;;;;4.47;77.29;102929.69;146620;564;46011;-64
2023/12/18 04:40:15;;;;;;;;;;;;;;;;;;;;;
2023/12/18 04:43:26;;;;;;;;;22.50;20.00;;;;;4.27;76.13;102931.69;146620;621;46012;-66
2023/12/18 04:46:25;;;;;;;;;24.00;21.75;;;;;4.13;75.61;102927.56;146611;587;47916;-65
2023/12/18 04:49:29;;;;;;;;;20.00;20.00;;;;;4.04;76.08;102932.59;146620;649;46010;-64
2023/12/18 04:52:32;;;;;;;;;29.75;25.25;;;;;4.05;76.98;102933.50;146616;624;46013;-63
2023/12/18 04:55:40;;;;;;;;;25.25;22.25;;;;;4.11;77.41;102942.81;146621;629;46012;-63
2023/12/18 04:58:57;;;;;;;;;;;;;;;;;;;;;
2023/12/18 05:01:59;;;;;;;;;34.00;29.00;;;;;4.13;78.62;102946.47;146621;566;46010;-63
2023/12/18 05:04:56;;;;;;;;;38.50;29.00;;;;;4.16;78.40;102949.38;146614;563;46012;-62
2023/12/18 05:07:55;;;;;;;;;25.75;23.75;;;;;4.25;78.28;102946.94;146620;576;46021;-63
2023/12/18 05:10:55;;;;;;;;;30.50;25.75;;;;;4.30;78.52;102950.94;146611;576;46016;-67
2023/12/18 05:14:04;;;;;;;;;33.50;31.50;;;;;4.31;78.09;102949.28;146618;641;46021;-66
2023/12/18 05:17:05;;;;;;;;;31.75;27.00;;;;;4.32;78.29;102946.84;146617;610;46014;-65
2023/12/18 05:20:21;;;;;;;;;30.50;28.75;;;;;4.34;77.98;102942.81;146619;571;46020;-67
2023/12/18 05:23:35;;;;;;;;;25.25;20.25;;;;;4.34;77.90;102953.09;146616;618;46016;-66
2023/12/18 05:26:31;;;;;;;;;28.75;27.00;;;;;4.38;77.64;102947.53;146619;609;46020;-64
2023/12/18 05:29:38;;;;;;;;;36.00;31.75;;;;;4.43;77.11;102942.94;146632;774;45016;-64
2023/12/18 05:32:34;;;;;;;;;19.25;16.25;;;;;4.48;76.53;102951.13;146629;569;45020;-64
2023/12/18 05:35:34;;;;;;;;;25.50;22.50;;;;;4.52;76.49;102945.63;146634;646;45016;-65
2023/12/18 05:38:30;;;;;;;;;28.50;24.00;;;;;4.53;76.77;102939.72;146635;624;45010;-65
2023/12/18 05:41:43;;;;;;;;;28.75;26.00;;;;;4.55;76.33;102935.69;146632;582;45021;-66
2023/12/18 05:45:08;;;;;;;;;25.50;19.00;;;;;-0.41;76.27;102061.50;146635;570;45020;-67
2023/12/18 05:48:06;;;;;;;;;25.25;21.50;;;;;4.57;75.77;102953.06;146633;692;45016;-66
2023/12/18 05:51:07;;;;;;;;;31.00;23.50;;;;;4.55;76.24;102945.97;146630;642;45020;-63
2023/12/18 05:54:03;;;;;;;;;32.50;25.75;;;;;4.53;75.37;102953.47;146631;603;46916;-64
2023/12/18 05:56:55;;;;;;;;;36.25;31.50;;;;;4.49;74.64;102947.84;146634;563;45030;-63
2023/12/18 05:59:59;;;;;;;;;32.25;29.25;;;;;4.38;74.64;102946.62;146632;586;45013;-65
2023/12/18 06:03:02;;;;;;;;;34.00;31.50;;;;;4.27;74.83;102945.47;146628;636;45010;-64
2023/12/18 06:06:06;;;;;;;;;34.50;31.25;;;;;4.21;74.95;102951.56;146632;581;45017;-64
2023/12/18 06:09:13;;;;;;;;;25.00;20.25;;;;;4.13;75.28;102951.59;146635;575;45010;-61
2023/12/18 06:12:17;;;;;;;;;26.00;24.50;;;;;4.04;75.20;102955.69;146633;599;45012;-66
2023/12/18 06:15:15;;;;;;;;;30.50;25.75;;;;;4.03;75.16;102952.97;146632;604;45021;-70
2023/12/18 06:18:18;;;;;;;;;31.75;28.00;;;;;4.01;75.58;102949.31;146632;587;45918;-68
2023/12/18 06:21:24;;;;;;;;;35.00;31.25;;;;;3.97;75.41;102952.28;146633;581;46010;-65
2023/12/18 06:24:21;;;;;;;;;42.75;34.25;;;;;4.01;76.15;102950.22;146630;648;46016;-68
2023/12/18 06:27:34;;;;;;;;;50.00;37.75;;;;;4.07;77.16;102945.78;146631;601;46012;-67
2023/12/18 06:30:29;;;;;;;;;42.25;33.25;;;;;4.11;77.11;102940.25;146618;631;46012;-66
2023/12/18 06:33:29;;;;;;;;;41.25;33.00;;;;;4.21;77.25;102947.34;146614;614;46010;-68
2023/12/18 06:36:31;;;;;;;;;32.00;27.00;;;;;4.30;77.54;102950.00;146617;576;46014;-64
2023/12/18 06:39:42;;;;;;;;;31.25;28.00;;;;;4.45;77.86;102951.69;146619;575;46012;-65
2023/12/18 06:42:57;;;;;;;;;29.50;28.50;;;;;-0.17;78.21;102081.28;146618;569;46012;-65
2023/12/18 06:45:56;;;;;;;;;35.50;31.00;;;;;5.12;80.23;102954.75;146620;651;46020;-66
2023/12/18 06:49:16;;;;;;;;;38.50;33.00;;;;;5.80;82.70;102938.06;146617;606;46917;-66
2023/12/18 06:52:36;;;;;;;;;41.25;33.25;;;;;1.94;82.99;102070.69;146620;624;46010;-66
2023/12/18 06:56:01;;;;;;;;;54.75;41.50;;;;;7.94;80.93;102948.59;146617;595;46016;-65
2023/12/18 06:59:11;;;;;;;;;47.25;35.00;;;;;9.34;74.73;102941.13;146620;585;46012;-66
2023/12/18 07:02:13;;;;;;;;;47.50;37.00;;;;;10.27;68.58;102940.88;146615;578;46016;-65
2023/12/18 07:05:05;;;;;;;;;45.75;36.25;;;;;11.03;64.49;102929.31;146617;630;46021;-65
2023/12/18 07:07:58;;;;;;;;;53.25;39.25;;;;;11.65;60.60;102931.81;146615;588;46920;-65
2023/12/18 07:11:04;;;;;;;;;42.00;32.25;;;;;7.95;60.00;102185.84;146620;606;46020;-67
2023/12/18 07:14:02;;;;;;;;;27.25;22.75;;;;;12.65;56.73;102931.25;146615;613;46916;-65
2023/12/18 07:16:55;;;;;;;;;29.25;24.25;;;;;13.04;55.54;102936.78;146619;577;46010;-63
2023/12/18 07:20:10;;;;;;;;;;;;;;;;;;;;;
2023/12/18 07:23:05;;;;;;;;;29.75;23.75;;;;;13.93;51.23;102938.25;146621;602;46010;-65
2023/12/18 07:26:11;;;;;;;;;20.50;18.75;;;;;13.99;49.86;102941.31;146616;763;46016;-62
2023/12/18 07:29:11;;;;;;;;;22.75;19.25;;;;;14.01;53.13;102939.72;146622;600;46010;-68
2023/12/18 07:32:08;;;;;;;;;19.75;18.75;;;;;14.14;51.56;102944.09;146618;597;46014;-67
2023/12/18 07:35:16;;;;;;;;;23.75;21.50;;;;;14.27;50.37;102931.16;146619;598;46021;-68
2023/12/18 07:38:25;;;;;;;;;24.75;23.75;;;;;14.27;48.19;102934.69;146617;569;46012;-67
2023/12/18 07:41:19;;;;;;;;;22.75;19.50;;;;;13.79;47.13;102935.53;146621;609;46030;-68
2023/12/18 07:44:18;;;;;;;;;31.75;28.50;;;;;13.23;49.52;102936.50;146618;564;46016;-67
2023/12/18 07:47:25;;;;;;;;;28.00;25.25;;;;;12.69;50.31;102940.19;146619;622;46020;-67
2023/12/18 07:50:31;;;;;;;;;35.25;29.75;;;;;12.10;51.90;102946.78;146617;638;46016;-65
2023/12/18 07:53:42;;;;;;;;;30.00;28.00;;;;;11.57;53.61;102937.28;146620;633;46020;-64
2023/12/18 07:56:48;;;;;;;;;36.50;29.25;;;;;11.14;55.96;102935.41;146618;578;46015;-67
2023/12/18 07:59:54;;;;;;;;;29.25;28.75;;;;;10.87;57.23;102939.16;146618;585;46010;-64
2023/12/18 08:02:49;;;;;;;;;32.75;26.75;;;;;10.74;55.84;102939.78;146615;654;46016;-67
2023/12/18 08:05:55;;;;;;;;;37.25;30.75;;;;;6.40;58.14;102205.72;146618;571;46020;-68
2023/12/18 08:08:59;;;;;;;;;37.00;29.75;;;;;10.45;57.67;102928.59;146617;640;46016;-67
2023/12/18 08:12:06;;;;;;;;;42.75;32.50;;;;;6.44;58.15;102258.44;146618;576;46021;-66
2023/12/18 08:15:10;;;;;;;;;33.50;30.75;;;;;10.14;59.24;102938.84;146616;603;46014;-68
2023/12/18 08:18:15;;;;;;;;;33.00;28.50;;;;;10.12;60.87;102940.38;146617;607;46020;-67
2023/12/18 08:21:12;;;;;;;;;30.50;26.50;;;;;10.14;60.22;102942.34;146616;645;46017;-66
2023/12/18 08:24:27;;;;;;;;;31.50;29.75;;;;;10.11;60.10;102951.53;146620;605;46010;-68
2023/12/18 08:27:24;;;;;;;;;29.75;24.25;;;;;10.02;58.97;102949.03;146618;613;45035;-67
2023/12/18 08:30:29;;;;;;;;;28.25;26.25;;;;;9.94;60.11;102934.50;146618;563;46010;-66
2023/12/18 08:33:22;;;;;;;;;28.50;25.50;;;;;10.07;60.68;102944.28;146617;609;46012;-67
2023/12/18 08:36:16;;;;;;;;;32.75;24.75;;;;;10.13;60.49;102948.31;146617;623;46021;-68
2023/12/18 08:39:13;;;;;;;;;25.50;22.00;;;;;10.21;59.54;102942.88;146616;587;46915;-66
2023/12/18 08:42:06;;;;;;;;;32.00;24.25;;;;;10.28;58.16;102937.50;146620;632;46021;-66
2023/12/18 08:45:03;;;;;;;;;28.00;24.50;;;;;10.37;59.27;102941.81;146616;563;46016;-67
2023/12/18 08:47:59;;;;;;;;;25.25;21.75;;;;;10.43;59.93;102938.81;146617;570;45021;-66
2023/12/18 08:51:11;;;;;;;;;28.75;23.50;;;;;10.50;58.30;102933.41;146620;608;46016;-66
2023/12/18 08:54:07;;;;;;;;;25.75;23.50;;;;;10.55;58.26;102937.31;146619;593;46020;-65
2023/12/18 08:57:05;;;;;;;;;30.25;22.50;;;;;10.66;59.55;102926.97;146617;602;46013;-65
2023/12/18 09:00:02;;;;;;;;;23.00;21.50;;;;;10.85;59.18;102918.28;146618;565;45020;-66
2023/12/18 09:03:11;;;;;;;;;25.50;18.50;;;;;6.82;58.76;102161.41;146609;659;47920;-66
2023/12/18 09:06:09;;;;;;;;;21.00;18.75;;;;;11.26;54.94;102912.16;146619;595;46012;-66
2023/12/18 09:09:06;;;;;;;;;20.25;19.00;;;;;11.35;55.26;102899.03;146614;575;47012;-67
2023/12/18 09:12:04;;;;;;;;;18.50;15.75;;;;;11.41;55.71;102897.84;146618;579;46021;-67
2023/12/18 09:15:07;;;;;;;;;21.50;18.50;;;;;11.50;55.47;102897.69;146618;565;46014;-66
2023/12/18 09:18:15;;;;;;;;;19.50;17.00;;;;;11.56;55.03;102896.50;146621;592;46013;-67
2023/12/18 09:21:11;;;;;;;;;17.50;16.50;;;;;11.65;55.04;102887.63;146613;602;46016;-66
2023/12/18 09:24:19;;;;;;;;;21.25;17.75;;;;;11.78;55.45;102877.47;146618;607;46020;-66
2023/12/18 09:27:14;;;;;;;;;21.25;17.50;;;;;11.98;54.79;102869.59;146617;593;46013;-67
2023/12/18 09:30:17;;;;;;;;;16.00;14.00;;;;;12.14;53.71;102865.59;146618;578;46020;-67
2023/12/18 09:33:21;;;;;;;;;19.50;16.50;;;;;12.19;52.91;102864.28;146617;569;46915;-67
2023/12/18 09:36:32;;;;;;;;;17.25;14.75;;;;;12.25;54.43;102859.56;146621;571;46010;-65
2023/12/18 09:39:30;;;;;;;;;12.75;12.50;;;;;12.38;51.94;102853.63;146614;611;46017;-66
2023/12/18 09:42:45;;;;;;;;;12.75;12.00;;;;;12.55;52.50;102847.09;146621;603;45024;-66
2023/12/18 09:45:44;;;;;;;;;18.50;14.75;;;;;12.66;51.74;102846.25;146616;650;46016;-67
2023/12/18 09:48:52;;;;;;;;;16.00;13.25;;;;;12.73;50.28;102837.22;146617;613;46021;-67
2023/12/18 09:51:48;;;;;;;;;19.25;19.25;;;;;12.76;50.14;102847.84;146619;575;46012;-67
2023/12/18 09:54:56;;;;;;;;;12.25;11.00;;;;;12.79;52.08;102829.87;146622;678;46010;-68
2023/12/18 09:57:55;;;;;;;;;12.00;11.00;;;;;12.82;50.15;102830.09;146617;679;46012;-66
2023/12/18 10:01:10;;;;;;;;;;;;;;;;;;;;;
2023/12/18 10:04:10;;;;;;;;;21.50;18.00;;;;;12.90;49.93;102826.37;146613;570;46032;-70
2023/12/18 10:07:14;;;;;;;;;13.50;11.00;;;;;12.99;50.70;102828.75;146620;641;46012;-67
2023/12/18 10:10:18;;;;;;;;;14.25;11.75;;;;;13.08;49.99;102816.41;146617;631;46017;-67
2023/12/18 10:13:24;;;;;;;;;18.25;15.25;;;;;13.17;51.36;102815.38;146621;605;46010;-67
2023/12/18 10:16:16;;;;;;;;;13.25;12.75;;;;;13.24;47.39;102811.56;146615;573;46016;-68
2023/12/18 10:19:23;;;;;;;;;12.75;11.00;;;;;13.21;49.25;102808.75;146621;727;46021;-68
2023/12/18 10:22:33;;;;;;;;;;;;;;;;;;;;;
2023/12/18 10:25:43;;;;;;;;;18.75;13.00;;;;;13.16;49.80;102784.94;146621;595;45021;-67
2023/12/18 10:28:39;;;;;;;;;11.25;10.50;;;;;13.23;46.88;102788.87;146618;613;46014;-67
2023/12/18 10:31:58;;;;;;;;;11.50;10.75;;;;;13.23;46.79;102786.28;146619;598;47020;-67
2023/12/18 10:34:52;;;;;;;;;12.00;11.75;;;;;13.20;46.45;102783.47;146619;573;46012;-68
2023/12/18 10:38:20;;;;;;;;;13.00;13.00;;;;;13.22;48.38;102773.16;146620;578;46020;-67
2023/12/18 10:41:22;;;;;;;;;14.75;12.00;;;;;13.31;48.76;102774.78;146617;572;46037;-67
2023/12/18 10:44:20;;;;;;;;;15.25;13.00;;;;;13.40;45.25;102759.81;146619;647;47010;-68
2023/12/18 10:47:16;;;;;;;;;14.75;13.75;;;;;13.33;45.15;102747.12;146617;571;46012;-68
2023/12/18 10:50:27;;;;;;;;;15.25;12.00;;;;;13.39;46.78;102755.41;146621;586;46020;-68
2023/12/18 10:53:25;;;;;;;;;14.25;12.00;;;;;13.48;47.17;102749.91;146616;661;46012;-68
2023/12/18 10:56:28;;;;;;;;;13.00;10.75;;;;;13.58;46.89;102746.25;146620;575;46020;-69
2023/12/18 10:59:37;;;;;;;;;14.75;12.25;;;;;13.71;47.95;102745.47;146618;569;46012;-69
2023/12/18 11:02:35;;;;;;;;;13.00;12.00;;;;;13.86;46.22;102746.50;146621;585;46010;-67
2023/12/18 11:05:34;;;;;;;;;9.00;9.00;;;;;13.96;46.94;102738.56;146616;612;46016;-68
2023/12/18 11:08:31;;;;;;;;;14.00;12.75;;;;;14.09;46.17;102730.78;146619;592;46020;-68
2023/12/18 11:11:30;;;;;;;;;10.75;10.00;;;;;14.19;45.16;102720.97;146615;607;46012;-68
2023/12/18 11:15:22;;;;;;;;;13.50;9.75;;;;;14.15;44.90;102708.53;146623;635;46010;-67
2023/12/18 11:18:59;;;;;;;;;13.50;11.75;;;;;14.02;49.39;102702.47;146618;578;46014;-67
2023/12/18 11:22:05;;;;;;;;;20.00;15.00;;;;;14.04;43.71;102695.63;146618;717;46035;-67
2023/12/18 11:24:59;;;;;;;;;25.00;17.50;;;;;14.10;46.44;102693.44;146614;619;46015;-67
2023/12/18 11:28:04;;;;;;;;;16.75;15.75;;;;;14.21;46.55;102690.69;146621;662;46010;-67
2023/12/18 11:31:20;;;;;;;;;34.50;29.00;;;;;14.26;47.22;102677.13;146618;592;46916;-68
2023/12/18 11:34:33;;;;;;;;;31.00;26.50;;;;;10.95;46.75;102073.81;146619;600;46012;-66
2023/12/18 11:37:28;;;;;;;;;21.50;21.50;;;;;14.42;43.64;102670.31;146618;588;46012;-67
2023/12/18 11:40:55;;;;;;;;;20.00;19.50;;;;;14.38;46.74;102670.91;146617;570;46021;-67
2023/12/18 11:44:21;;;;;;;;;22.25;21.75;;;;;14.39;45.36;102658.00;146618;566;46014;-67
2023/12/18 11:47:21;;;;;;;;;24.00;22.75;;;;;14.45;44.03;102662.69;146617;584;47011;-67
2023/12/18 11:50:38;;;;;;;;;13.50;12.50;;;;;14.50;42.70;102648.25;146615;606;45917;-68
2023/12/18 11:54:00;;;;;;;;;16.50;14.25;;;;;14.48;43.04;102647.22;146619;585;47010;-68
2023/12/18 11:56:58;;;;;;;;;22.00;20.00;;;;;14.46;42.29;102638.41;146615;626;46016;-68
2023/12/18 11:59:54;;;;;;;;;12.25;12.00;;;;;14.46;40.34;102638.41;146617;573;46020;-67
2023/12/18 12:02:47;;;;;;;;;18.75;17.25;;;;;14.49;41.24;102633.41;146614;616;47012;-68
2023/12/18 12:05:58;;;;;;;;;16.50;15.00;;;;;14.52;42.74;102631.91;146619;611;46020;-68
2023/12/18 12:08:55;;;;;;;;;17.00;16.00;;;;;14.59;40.52;102628.00;146617;601;46013;-68
2023/12/18 12:11:56;;;;;;;;;18.00;12.25;;;;;14.67;42.47;102625.88;146619;694;46020;-67
2023/12/18 12:14:56;;;;;;;;;15.00;12.00;;;;;14.71;40.42;102622.69;146615;604;46916;-67
2023/12/18 12:18:03;;;;;;;;;13.00;12.25;;;;;14.70;39.77;102621.78;146618;637;46020;-68
2023/12/18 12:21:16;;;;;;;;;;;;;;;;;;;;;
2023/12/18 12:24:12;;;;;;;;;15.00;12.75;;;;;14.95;37.86;102605.03;146621;614;46011;-70
2023/12/18 12:27:12;;;;;;;;;11.25;10.25;;;;;15.05;39.70;102596.09;146619;648;46915;-69
2023/12/18 12:30:23;;;;;;;;;15.75;12.00;;;;;15.16;37.60;102595.94;146621;628;47010;-69
2023/12/18 12:33:43;;;;;;;;;10.25;10.25;;;;;15.31;37.91;102590.78;146616;576;47017;-67
2023/12/18 12:36:39;;;;;;;;;14.75;12.00;;;;;15.39;37.74;102575.53;146621;570;46020;-67
2023/12/18 12:39:49;;;;;;;;;12.50;12.50;;;;;15.55;37.18;102588.75;146620;631;45037;-67
2023/12/18 12:42:45;;;;;;;;;13.50;9.50;;;;;15.54;35.64;102583.44;146615;579;47010;-68
2023/12/18 12:45:49;;;;;;;;;11.00;10.75;;;;;15.52;35.31;102574.59;146618;564;46918;-67
2023/12/18 12:48:50;;;;;;;;;15.25;13.50;;;;;15.41;35.20;102577.44;146621;569;47010;-67
2023/12/18 12:51:49;;;;;;;;;11.75;11.00;;;;;15.43;35.75;102588.91;146619;634;46918;-68
2023/12/18 12:54:41;;;;;;;;;12.25;11.75;;;;;15.41;34.31;102581.78;146623;659;47010;-67
2023/12/18 12:57:45;;;;;;;;;13.50;12.25;;;;;15.42;34.94;102583.56;146615;580;47016;-69
2023/12/18 13:00:57;;;;;;;;;12.00;10.50;;;;;15.44;34.63;102588.09;146621;707;46013;-68
2023/12/18 13:03:54;;;;;;;;;16.25;14.00;;;;;15.48;34.56;102583.94;146616;563;46016;-66
2023/12/18 13:06:58;;;;;;;;;16.25;14.00;;;;;15.58;35.76;102586.34;146618;637;46010;-67
2023/12/18 13:09:51;;;;;;;;;14.25;11.00;;;;;15.75;35.85;102583.84;146618;606;47012;-69
2023/12/18 13:12:59;;;;;;;;;21.00;15.00;;;;;11.92;38.00;101886.50;146618;625;46020;-67
2023/12/18 13:16:05;;;;;;;;;14.25;12.50;;;;;15.90;34.27;102582.16;146612;653;46918;-66
2023/12/18 13:18:58;;;;;;;;;12.50;11.25;;;;;15.80;33.11;102575.47;146619;646;46020;-66
2023/12/18 13:21:52;;;;;;;;;25.00;21.75;;;;;15.88;35.83;102589.00;146618;587;46016;-68
2023/12/18 13:24:46;;;;;;;;;20.00;19.25;;;;;15.95;32.91;102583.34;146617;581;46021;-68
2023/12/18 13:27:59;;;;;;;;;20.75;18.00;;;;;16.01;34.66;102578.47;146616;602;46918;-67
2023/12/18 13:30:55;;;;;;;;;29.75;25.00;;;;;16.05;34.22;102583.06;146618;582;46021;-67
2023/12/18 13:33:51;;;;;;;;;17.75;17.00;;;;;16.04;35.38;102589.09;146613;647;46016;-66
2023/12/18 13:36:46;;;;;;;;;12.25;10.25;;;;;15.98;34.38;102585.22;146622;636;46020;-67
2023/12/18 13:39:45;;;;;;;;;12.00;10.67;;;;;15.79;33.77;102581.50;146621;594;46012;-67
2023/12/18 13:42:55;;;;;;;;;12.00;11.25;;;;;15.72;37.91;102588.91;146622;581;46010;-67
2023/12/18 13:45:51;;;;;;;;;13.50;12.50;;;;;15.61;36.23;102586.53;146619;593;46013;-68
2023/12/18 13:48:43;;;;;;;;;11.00;10.67;;;;;15.60;35.42;102582.06;146620;563;46012;-67
2023/12/18 13:52:08;;;;;;;;;9.00;8.33;;;;;15.51;34.51;102571.06;146619;564;46015;-69
2023/12/18 13:55:08;;;;;;;;;14.75;14.25;;;;;15.49;38.21;102585.78;146621;643;46010;-68
2023/12/18 13:58:02;;;;;;;;;10.00;9.75;;;;;15.46;34.98;102577.75;146619;563;46012;-67
2023/12/18 14:01:00;;;;;;;;;13.50;12.00;;;;;15.40;35.88;102582.59;146619;564;47025;-67
2023/12/18 14:04:04;;;;;;;;;13.25;12.25;;;;;15.42;38.29;102584.50;146619;641;46014;-68
2023/12/18 14:07:14;;;;;;;;;;;;;;;;;;;;;
2023/12/18 14:10:15;;;;;;;;;12.50;11.00;;;;;15.10;36.11;102587.72;146619;639;46016;-69
2023/12/18 14:13:13;;;;;;;;;17.50;13.25;;;;;15.01;36.50;102579.31;146620;633;45020;-69
2023/12/18 14:16:17;;;;;;;;;13.00;11.25;;;;;14.93;38.67;102577.94;146617;576;46016;-68
2023/12/18 14:19:15;;;;;;;;;10.25;8.00;;;;;14.87;37.16;102574.94;146619;635;46020;-66